Lanesville, Illinois
Current Conditions -  °F | °C
As of 11:52 AM on Friday 19 Dec 2014 (Local Time) from KSPI Reporting Station
Overcast Overcast  
Wind Chill: 35°   Ceiling: 4400
Heat Index: 35°   Visibility: 10mi
Dew Point: 22°   Wind: 3mph
Humidity: 59%   Direction: 90°E
Pressure: 30.3"   Gusts: NA
Location:  39.8448°N, 89.3474°W
Report Text: KSPI 191752Z 09003KT 10SM OVC044 02/M06 A3030 RMK AO2 SLP267 T00171056 10017 21050 58013
Loading
Personal Weather Stations






























Interactive Weather Map New forecast layout! Learn more

10-Day Weather Forecast

Advertisements
Track Severe Weather on mobile